sensor_id;sensor_type;location;lat;lon;timestamp;pressure;altitude;pressure_sealevel;temperature;humidity
23996;BME280;12207;50.076;8.848;2023-12-22T00:00:32;98551.78;;;5.50;96.48
23996;BME280;12207;50.076;8.848;2023-12-22T00:02:58;98551.19;;;5.48;96.16
23996;BME280;12207;50.076;8.848;2023-12-22T00:05:24;98548.97;;;5.45;96.67
23996;BME280;12207;50.076;8.848;2023-12-22T00:07:50;98567.69;;;5.57;95.95
23996;BME280;12207;50.076;8.848;2023-12-22T00:10:16;98571.38;;;5.56;96.57
23996;BME280;12207;50.076;8.848;2023-12-22T00:12:45;98583.22;;;5.53;97.45
23996;BME280;12207;50.076;8.848;2023-12-22T00:15:11;98575.44;;;5.58;96.53
23996;BME280;12207;50.076;8.848;2023-12-22T00:17:37;98577.28;;;5.58;96.80
23996;BME280;12207;50.076;8.848;2023-12-22T00:20:04;98584.00;;;5.60;96.40
23996;BME280;12207;50.076;8.848;2023-12-22T00:22:30;98613.94;;;5.67;96.49
23996;BME280;12207;50.076;8.848;2023-12-22T00:24:56;98604.38;;;5.66;96.34
23996;BME280;12207;50.076;8.848;2023-12-22T00:27:25;98584.06;;;5.72;95.84
23996;BME280;12207;50.076;8.848;2023-12-22T00:29:52;98598.16;;;5.72;97.19
23996;BME280;12207;50.076;8.848;2023-12-22T00:32:18;98587.53;;;5.72;98.43
23996;BME280;12207;50.076;8.848;2023-12-22T00:34:44;98602.81;;;5.77;97.99
23996;BME280;12207;50.076;8.848;2023-12-22T00:37:10;98619.81;;;5.76;98.57
23996;BME280;12207;50.076;8.848;2023-12-22T00:39:38;98604.63;;;5.83;97.92
23996;BME280;12207;50.076;8.848;2023-12-22T00:42:04;98604.69;;;5.76;98.94
23996;BME280;12207;50.076;8.848;2023-12-22T00:44:30;98614.66;;;5.81;98.45
23996;BME280;12207;50.076;8.848;2023-12-22T00:46:56;98610.59;;;5.78;99.17
23996;BME280;12207;50.076;8.848;2023-12-22T00:49:22;98607.75;;;5.73;99.69
23996;BME280;12207;50.076;8.848;2023-12-22T00:51:48;98614.13;;;5.72;100.00
23996;BME280;12207;50.076;8.848;2023-12-22T00:54:14;98607.56;;;5.75;100.00
23996;BME280;12207;50.076;8.848;2023-12-22T00:56:41;98607.97;;;5.72;100.00
23996;BME280;12207;50.076;8.848;2023-12-22T00:59:07;98594.91;;;5.70;100.00
23996;BME280;12207;50.076;8.848;2023-12-22T01:01:33;98594.47;;;5.73;100.00
23996;BME280;12207;50.076;8.848;2023-12-22T01:03:59;98602.28;;;5.68;100.00
23996;BME280;12207;50.076;8.848;2023-12-22T01:06:25;98607.94;;;5.78;100.00
23996;BME280;12207;50.076;8.848;2023-12-22T01:08:51;98607.34;;;5.76;100.00
23996;BME280;12207;50.076;8.848;2023-12-22T01:11:18;98615.31;;;5.76;100.00
23996;BME280;12207;50.076;8.848;2023-12-22T01:13:44;98622.31;;;5.71;100.00
23996;BME280;12207;50.076;8.848;2023-12-22T01:16:10;98625.34;;;5.74;100.00
23996;BME280;12207;50.076;8.848;2023-12-22T01:18:36;98622.69;;;5.74;100.00
23996;BME280;12207;50.076;8.848;2023-12-22T01:21:03;98619.44;;;5.72;100.00
23996;BME280;12207;50.076;8.848;2023-12-22T01:23:29;98631.69;;;5.73;100.00
23996;BME280;12207;50.076;8.848;2023-12-22T01:25:55;98644.81;;;5.68;100.00
23996;BME280;12207;50.076;8.848;2023-12-22T01:28:21;98649.75;;;5.65;100.00
23996;BME280;12207;50.076;8.848;2023-12-22T01:30:47;98682.38;;;5.72;100.00
23996;BME280;12207;50.076;8.848;2023-12-22T01:33:14;98720.22;;;5.67;100.00
23996;BME280;12207;50.076;8.848;2023-12-22T01:35:40;98740.09;;;5.65;100.00
23996;BME280;12207;50.076;8.848;2023-12-22T01:38:06;98726.13;;;5.44;100.00
23996;BME280;12207;50.076;8.848;2023-12-22T01:40:32;98727.75;;;5.45;100.00
23996;BME280;12207;50.076;8.848;2023-12-22T01:42:58;98726.41;;;5.36;100.00
23996;BME280;12207;50.076;8.848;2023-12-22T01:45:24;98717.84;;;5.28;100.00
23996;BME280;12207;50.076;8.848;2023-12-22T01:47:50;98717.06;;;5.21;100.00
23996;BME280;12207;50.076;8.848;2023-12-22T01:50:17;98720.03;;;5.06;100.00
23996;BME280;12207;50.076;8.848;2023-12-22T01:52:44;98707.81;;;4.98;100.00
23996;BME280;12207;50.076;8.848;2023-12-22T01:55:11;98703.75;;;4.96;100.00
23996;BME280;12207;50.076;8.848;2023-12-22T01:57:40;98685.59;;;4.93;100.00
23996;BME280;12207;50.076;8.848;2023-12-22T02:00:08;98676.81;;;4.92;100.00
23996;BME280;12207;50.076;8.848;2023-12-22T02:02:34;98683.16;;;4.91;100.00
23996;BME280;12207;50.076;8.848;2023-12-22T02:05:00;98691.28;;;4.96;100.00
23996;BME280;12207;50.076;8.848;2023-12-22T02:07:27;98708.47;;;4.94;100.00
23996;BME280;12207;50.076;8.848;2023-12-22T02:09:53;98713.38;;;4.90;100.00
23996;BME280;12207;50.076;8.848;2023-12-22T02:12:20;98709.44;;;4.99;100.00
23996;BME280;12207;50.076;8.848;2023-12-22T02:14:46;98705.59;;;4.95;100.00
23996;BME280;12207;50.076;8.848;2023-12-22T02:17:26;98705.75;;;5.00;100.00
23996;BME280;12207;50.076;8.848;2023-12-22T02:19:56;98688.81;;;5.01;100.00
23996;BME280;12207;50.076;8.848;2023-12-22T02:22:24;98682.88;;;5.06;100.00
23996;BME280;12207;50.076;8.848;2023-12-22T02:24:50;98691.84;;;5.05;100.00
23996;BME280;12207;50.076;8.848;2023-12-22T02:32:50;98693.88;;;5.09;100.00
23996;BME280;12207;50.076;8.848;2023-12-22T02:35:25;98698.22;;;4.97;100.00
23996;BME280;12207;50.076;8.848;2023-12-22T02:37:52;98692.88;;;5.04;100.00
23996;BME280;12207;50.076;8.848;2023-12-22T02:40:19;98697.19;;;4.98;100.00
23996;BME280;12207;50.076;8.848;2023-12-22T02:42:46;98704.34;;;4.98;100.00
23996;BME280;12207;50.076;8.848;2023-12-22T02:45:18;98706.19;;;4.97;100.00
23996;BME280;12207;50.076;8.848;2023-12-22T02:47:44;98712.97;;;4.93;100.00
23996;BME280;12207;50.076;8.848;2023-12-22T02:50:11;98710.13;;;4.88;100.00
23996;BME280;12207;50.076;8.848;2023-12-22T02:52:38;98718.69;;;4.90;100.00
23996;BME280;12207;50.076;8.848;2023-12-22T02:55:05;98716.88;;;4.84;100.00
23996;BME280;12207;50.076;8.848;2023-12-22T02:57:31;98720.13;;;4.86;100.00
23996;BME280;12207;50.076;8.848;2023-12-22T02:59:57;98704.63;;;4.83;100.00
23996;BME280;12207;50.076;8.848;2023-12-22T03:02:24;98699.94;;;4.78;100.00
23996;BME280;12207;50.076;8.848;2023-12-22T03:04:50;98709.34;;;4.74;100.00
23996;BME280;12207;50.076;8.848;2023-12-22T03:07:16;98711.19;;;4.74;100.00
23996;BME280;12207;50.076;8.848;2023-12-22T03:09:43;98710.16;;;4.75;100.00
23996;BME280;12207;50.076;8.848;2023-12-22T03:12:09;98708.53;;;4.74;100.00
23996;BME280;12207;50.076;8.848;2023-12-22T03:14:36;98703.66;;;4.71;100.00
23996;BME280;12207;50.076;8.848;2023-12-22T03:17:04;98696.16;;;4.61;100.00
23996;BME280;12207;50.076;8.848;2023-12-22T03:19:30;98680.03;;;4.63;100.00
23996;BME280;12207;50.076;8.848;2023-12-22T03:21:57;98681.25;;;4.67;100.00
23996;BME280;12207;50.076;8.848;2023-12-22T03:24:24;98685.69;;;4.73;100.00
23996;BME280;12207;50.076;8.848;2023-12-22T03:26:50;98698.72;;;4.74;100.00
23996;BME280;12207;50.076;8.848;2023-12-22T03:29:16;98688.34;;;4.73;100.00
23996;BME280;12207;50.076;8.848;2023-12-22T03:31:43;98688.34;;;4.73;100.00
23996;BME280;12207;50.076;8.848;2023-12-22T03:34:10;98703.41;;;4.79;100.00
23996;BME280;12207;50.076;8.848;2023-12-22T03:36:36;98690.34;;;4.77;100.00
23996;BME280;12207;50.076;8.848;2023-12-22T03:39:02;98681.38;;;4.78;100.00
23996;BME280;12207;50.076;8.848;2023-12-22T03:41:29;98682.59;;;4.76;100.00
23996;BME280;12207;50.076;8.848;2023-12-22T03:43:55;98677.50;;;4.74;100.00
23996;BME280;12207;50.076;8.848;2023-12-22T03:46:22;98683.25;;;4.71;100.00
23996;BME280;12207;50.076;8.848;2023-12-22T03:48:50;98687.75;;;4.71;100.00
23996;BME280;12207;50.076;8.848;2023-12-22T03:51:16;98684.31;;;4.64;100.00
23996;BME280;12207;50.076;8.848;2023-12-22T03:53:42;98672.88;;;4.70;100.00
23996;BME280;12207;50.076;8.848;2023-12-22T03:56:09;98667.91;;;4.73;100.00
23996;BME280;12207;50.076;8.848;2023-12-22T03:58:35;98685.22;;;4.83;100.00
23996;BME280;12207;50.076;8.848;2023-12-22T04:01:02;98676.84;;;4.86;100.00
23996;BME280;12207;50.076;8.848;2023-12-22T04:03:28;98663.16;;;4.89;100.00
23996;BME280;12207;50.076;8.848;2023-12-22T04:05:54;98663.72;;;4.97;100.00
23996;BME280;12207;50.076;8.848;2023-12-22T04:08:20;98659.44;;;4.96;100.00
23996;BME280;12207;50.076;8.848;2023-12-22T04:10:47;98653.97;;;4.91;100.00
23996;BME280;12207;50.076;8.848;2023-12-22T04:13:14;98654.94;;;4.97;100.00
23996;BME280;12207;50.076;8.848;2023-12-22T04:15:40;98662.88;;;5.03;100.00
23996;BME280;12207;50.076;8.848;2023-12-22T04:18:06;98666.53;;;5.02;100.00
23996;BME280;12207;50.076;8.848;2023-12-22T04:20:32;98662.03;;;5.09;100.00
23996;BME280;12207;50.076;8.848;2023-12-22T04:23:01;98665.72;;;5.02;100.00
23996;BME280;12207;50.076;8.848;2023-12-22T04:25:27;98660.19;;;5.10;100.00
23996;BME280;12207;50.076;8.848;2023-12-22T04:27:53;98652.59;;;5.13;100.00
23996;BME280;12207;50.076;8.848;2023-12-22T04:30:20;98647.69;;;5.17;100.00
23996;BME280;12207;50.076;8.848;2023-12-22T04:32:46;98661.16;;;5.16;100.00
23996;BME280;12207;50.076;8.848;2023-12-22T04:35:12;98663.63;;;5.17;100.00
23996;BME280;12207;50.076;8.848;2023-12-22T04:37:38;98656.25;;;5.19;100.00
23996;BME280;12207;50.076;8.848;2023-12-22T04:40:05;98674.97;;;5.24;100.00
23996;BME280;12207;50.076;8.848;2023-12-22T04:42:31;98680.25;;;5.31;100.00
23996;BME280;12207;50.076;8.848;2023-12-22T04:44:57;98687.63;;;5.29;100.00
23996;BME280;12207;50.076;8.848;2023-12-22T04:47:23;98697.41;;;5.35;100.00
23996;BME280;12207;50.076;8.848;2023-12-22T04:49:50;98702.31;;;5.31;100.00
23996;BME280;12207;50.076;8.848;2023-12-22T04:52:16;98688.63;;;5.34;100.00
23996;BME280;12207;50.076;8.848;2023-12-22T04:54:42;98684.94;;;5.35;100.00
23996;BME280;12207;50.076;8.848;2023-12-22T04:57:08;98688.81;;;5.33;100.00
23996;BME280;12207;50.076;8.848;2023-12-22T04:59:34;98692.09;;;5.35;100.00
23996;BME280;12207;50.076;8.848;2023-12-22T05:02:00;98690.47;;;5.34;100.00
23996;BME280;12207;50.076;8.848;2023-12-22T05:04:26;98690.47;;;5.34;100.00
23996;BME280;12207;50.076;8.848;2023-12-22T05:06:53;98686.94;;;5.40;100.00
23996;BME280;12207;50.076;8.848;2023-12-22T05:09:19;98700.97;;;5.47;100.00
23996;BME280;12207;50.076;8.848;2023-12-22T05:11:45;98706.72;;;5.44;100.00
23996;BME280;12207;50.076;8.848;2023-12-22T05:14:11;98704.31;;;5.42;100.00
23996;BME280;12207;50.076;8.848;2023-12-22T05:16:37;98697.47;;;5.53;100.00
23996;BME280;12207;50.076;8.848;2023-12-22T05:19:03;98722.75;;;5.62;100.00
23996;BME280;12207;50.076;8.848;2023-12-22T05:21:29;98715.91;;;5.73;100.00
23996;BME280;12207;50.076;8.848;2023-12-22T05:23:56;98710.94;;;5.83;100.00
23996;BME280;12207;50.076;8.848;2023-12-22T05:26:22;98713.63;;;5.76;100.00
23996;BME280;12207;50.076;8.848;2023-12-22T05:28:49;98716.28;;;5.76;100.00
23996;BME280;12207;50.076;8.848;2023-12-22T05:31:16;98710.59;;;5.73;100.00
23996;BME280;12207;50.076;8.848;2023-12-22T05:33:43;98714.28;;;5.72;100.00
23996;BME280;12207;50.076;8.848;2023-12-22T05:36:09;98719.81;;;5.70;100.00
23996;BME280;12207;50.076;8.848;2023-12-22T05:38:39;98717.75;;;5.72;100.00
23996;BME280;12207;50.076;8.848;2023-12-22T05:41:06;98734.72;;;5.71;100.00
23996;BME280;12207;50.076;8.848;2023-12-22T05:43:34;98721.84;;;5.68;100.00
23996;BME280;12207;50.076;8.848;2023-12-22T05:46:01;98717.69;;;5.79;100.00
23996;BME280;12207;50.076;8.848;2023-12-22T05:48:27;98713.38;;;5.85;100.00
23996;BME280;12207;50.076;8.848;2023-12-22T05:50:56;98713.03;;;5.74;100.00
23996;BME280;12207;50.076;8.848;2023-12-22T05:53:22;98707.06;;;5.79;100.00
23996;BME280;12207;50.076;8.848;2023-12-22T05:55:48;98728.97;;;5.74;100.00
23996;BME280;12207;50.076;8.848;2023-12-22T05:58:14;98709.34;;;5.75;100.00
23996;BME280;12207;50.076;8.848;2023-12-22T06:00:40;98706.09;;;5.73;100.00
23996;BME280;12207;50.076;8.848;2023-12-22T06:03:06;98718.94;;;5.76;100.00
23996;BME280;12207;50.076;8.848;2023-12-22T06:05:33;98719.97;;;5.75;100.00
23996;BME280;12207;50.076;8.848;2023-12-22T06:07:59;98702.78;;;5.78;100.00
23996;BME280;12207;50.076;8.848;2023-12-22T06:10:26;98713.38;;;5.85;100.00
23996;BME280;12207;50.076;8.848;2023-12-22T06:12:52;98716.06;;;5.78;100.00
23996;BME280;12207;50.076;8.848;2023-12-22T06:15:29;98714.41;;;5.83;100.00
23996;BME280;12207;50.076;8.848;2023-12-22T06:17:55;98711.97;;;5.82;100.00
23996;BME280;12207;50.076;8.848;2023-12-22T06:20:22;98702.72;;;5.85;100.00
23996;BME280;12207;50.076;8.848;2023-12-22T06:22:48;98707.25;;;5.84;100.00
23996;BME280;12207;50.076;8.848;2023-12-22T06:25:17;98703.16;;;5.81;100.00
23996;BME280;12207;50.076;8.848;2023-12-22T06:27:45;98703.78;;;5.83;100.00
23996;BME280;12207;50.076;8.848;2023-12-22T06:30:11;98713.56;;;5.90;100.00
23996;BME280;12207;50.076;8.848;2023-12-22T06:32:44;98720.72;;;5.89;100.00
23996;BME280;12207;50.076;8.848;2023-12-22T06:35:15;98733.34;;;5.94;100.00
23996;BME280;12207;50.076;8.848;2023-12-22T06:37:42;98737.78;;;6.00;100.00
23996;BME280;12207;50.076;8.848;2023-12-22T06:40:08;98742.50;;;5.98;100.00
23996;BME280;12207;50.076;8.848;2023-12-22T06:42:35;98755.38;;;6.01;100.00
23996;BME280;12207;50.076;8.848;2023-12-22T06:45:01;98763.19;;;5.96;100.00
23996;BME280;12207;50.076;8.848;2023-12-22T06:47:27;98752.72;;;6.01;100.00
23996;BME280;12207;50.076;8.848;2023-12-22T06:49:53;98743.13;;;6.00;100.00
23996;BME280;12207;50.076;8.848;2023-12-22T06:52:19;98750.59;;;6.09;100.00
23996;BME280;12207;50.076;8.848;2023-12-22T06:54:45;98753.66;;;6.13;100.00
23996;BME280;12207;50.076;8.848;2023-12-22T06:57:11;98762.66;;;6.12;100.00
23996;BME280;12207;50.076;8.848;2023-12-22T06:59:39;98754.50;;;6.07;100.00
23996;BME280;12207;50.076;8.848;2023-12-22T07:02:05;98753.31;;;6.03;100.00
23996;BME280;12207;50.076;8.848;2023-12-22T07:07:32;98755.84;;;5.91;100.00
23996;BME280;12207;50.076;8.848;2023-12-22T07:09:59;98762.38;;;5.95;100.00
23996;BME280;12207;50.076;8.848;2023-12-22T07:12:25;98758.03;;;6.01;100.00
23996;BME280;12207;50.076;8.848;2023-12-22T07:14:51;98773.59;;;5.97;100.00
23996;BME280;12207;50.076;8.848;2023-12-22T07:17:17;98781.34;;;5.99;100.00
23996;BME280;12207;50.076;8.848;2023-12-22T07:19:43;98782.19;;;5.99;100.00
23996;BME280;12207;50.076;8.848;2023-12-22T07:22:09;98805.25;;;6.05;100.00
23996;BME280;12207;50.076;8.848;2023-12-22T07:24:35;98797.66;;;6.09;100.00
23996;BME280;12207;50.076;8.848;2023-12-22T07:27:01;98792.66;;;6.19;100.00
23996;BME280;12207;50.076;8.848;2023-12-22T07:29:28;98808.72;;;6.31;99.81
23996;BME280;12207;50.076;8.848;2023-12-22T07:31:54;98811.75;;;6.34;100.00
23996;BME280;12207;50.076;8.848;2023-12-22T07:34:20;98802.44;;;6.43;98.50
23996;BME280;12207;50.076;8.848;2023-12-22T07:36:48;98811.19;;;6.50;97.62
23996;BME280;12207;50.076;8.848;2023-12-22T07:39:14;98816.94;;;6.47;97.56
23996;BME280;12207;50.076;8.848;2023-12-22T07:41:41;98809.28;;;6.58;97.21
23996;BME280;12207;50.076;8.848;2023-12-22T07:44:07;98822.72;;;6.63;95.81
23996;BME280;12207;50.076;8.848;2023-12-22T07:46:33;98834.19;;;6.63;96.56
23996;BME280;12207;50.076;8.848;2023-12-22T07:48:59;98827.19;;;6.69;95.73
23996;BME280;12207;50.076;8.848;2023-12-22T07:51:28;98836.97;;;6.75;95.18
23996;BME280;12207;50.076;8.848;2023-12-22T07:53:54;98838.06;;;6.85;95.04
23996;BME280;12207;50.076;8.848;2023-12-22T07:56:20;98835.19;;;6.87;94.60
23996;BME280;12207;50.076;8.848;2023-12-22T07:58:46;98841.25;;;6.76;95.70
23996;BME280;12207;50.076;8.848;2023-12-22T08:01:13;98829.19;;;6.73;97.60
23996;BME280;12207;50.076;8.848;2023-12-22T08:03:41;98832.50;;;6.69;97.86
23996;BME280;12207;50.076;8.848;2023-12-22T08:06:07;98821.47;;;6.65;98.26
23996;BME280;12207;50.076;8.848;2023-12-22T08:08:33;98834.13;;;6.70;98.38
23996;BME280;12207;50.076;8.848;2023-12-22T08:11:00;98832.13;;;6.65;98.84
23996;BME280;12207;50.076;8.848;2023-12-22T08:13:26;98836.19;;;6.68;98.12
23996;BME280;12207;50.076;8.848;2023-12-22T08:15:53;98829.19;;;6.73;98.16
23996;BME280;12207;50.076;8.848;2023-12-22T08:18:19;98822.66;;;6.69;98.32
23996;BME280;12207;50.076;8.848;2023-12-22T08:20:45;98830.59;;;6.76;98.14
23996;BME280;12207;50.076;8.848;2023-12-22T08:23:14;98832.81;;;6.79;98.03
23996;BME280;12207;50.076;8.848;2023-12-22T08:25:40;98840.16;;;6.83;97.79
23996;BME280;12207;50.076;8.848;2023-12-22T08:28:09;98855.66;;;6.87;98.07
23996;BME280;12207;50.076;8.848;2023-12-22T08:30:38;98828.97;;;6.93;97.76
23996;BME280;12207;50.076;8.848;2023-12-22T08:33:04;98824.84;;;6.97;97.06
23996;BME280;12207;50.076;8.848;2023-12-22T08:35:30;98820.53;;;6.96;97.17
23996;BME280;12207;50.076;8.848;2023-12-22T08:37:56;98831.94;;;7.03;97.45
23996;BME280;12207;50.076;8.848;2023-12-22T08:40:23;98828.63;;;7.08;96.50
23996;BME280;12207;50.076;8.848;2023-12-22T08:42:52;98827.00;;;7.07;97.20
23996;BME280;12207;50.076;8.848;2023-12-22T08:45:28;98847.13;;;7.03;97.65
23996;BME280;12207;50.076;8.848;2023-12-22T08:47:56;98839.03;;;7.09;97.17
23996;BME280;12207;50.076;8.848;2023-12-22T08:50:22;98845.84;;;7.05;98.46
23996;BME280;12207;50.076;8.848;2023-12-22T08:52:48;98858.25;;;7.11;97.70
23996;BME280;12207;50.076;8.848;2023-12-22T08:55:14;98863.16;;;7.14;96.74
23996;BME280;12207;50.076;8.848;2023-12-22T08:57:40;98859.38;;;7.22;96.78
23996;BME280;12207;50.076;8.848;2023-12-22T09:00:07;98855.91;;;7.22;97.02
23996;BME280;12207;50.076;8.848;2023-12-22T09:02:33;98856.50;;;7.24;97.51
23996;BME280;12207;50.076;8.848;2023-12-22T09:04:59;98858.41;;;7.16;97.03
23996;BME280;12207;50.076;8.848;2023-12-22T09:07:26;98864.34;;;7.18;95.39
23996;BME280;12207;50.076;8.848;2023-12-22T09:09:52;98864.78;;;7.15;94.70
23996;BME280;12207;50.076;8.848;2023-12-22T09:12:18;98882.84;;;7.13;95.87
23996;BME280;12207;50.076;8.848;2023-12-22T09:14:44;98889.78;;;7.14;95.42
23996;BME280;12207;50.076;8.848;2023-12-22T09:17:11;98873.38;;;7.17;94.18
23996;BME280;12207;50.076;8.848;2023-12-22T09:19:37;98862.34;;;7.14;95.26
23996;BME280;12207;50.076;8.848;2023-12-22T09:22:04;98864.56;;;7.17;95.14
23996;BME280;12207;50.076;8.848;2023-12-22T09:24:30;98864.34;;;7.18;95.93
23996;BME280;12207;50.076;8.848;2023-12-22T09:26:57;98867.75;;;7.07;94.52
23996;BME280;12207;50.076;8.848;2023-12-22T09:29:29;98863.00;;;7.09;95.70
23996;BME280;12207;50.076;8.848;2023-12-22T09:31:55;98878.84;;;7.04;95.99
23996;BME280;12207;50.076;8.848;2023-12-22T09:34:21;98885.06;;;6.98;97.15
23996;BME280;12207;50.076;8.848;2023-12-22T09:36:48;98901.69;;;6.94;97.57
23996;BME280;12207;50.076;8.848;2023-12-22T09:39:17;98905.16;;;6.94;99.08
23996;BME280;12207;50.076;8.848;2023-12-22T09:41:49;98890.22;;;6.93;98.82
23996;BME280;12207;50.076;8.848;2023-12-22T09:44:19;98886.91;;;6.98;97.93
23996;BME280;12207;50.076;8.848;2023-12-22T09:46:48;98884.22;;;6.98;97.57
23996;BME280;12207;50.076;8.848;2023-12-22T09:49:17;98885.06;;;6.98;97.80
23996;BME280;12207;50.076;8.848;2023-12-22T09:51:44;98875.97;;;7.06;98.95
23996;BME280;12207;50.076;8.848;2023-12-22T09:54:12;98866.13;;;7.06;98.62
23996;BME280;12207;50.076;8.848;2023-12-22T09:56:41;98854.28;;;7.02;98.65
23996;BME280;12207;50.076;8.848;2023-12-22T09:59:13;98844.13;;;7.11;98.06
23996;BME280;12207;50.076;8.848;2023-12-22T10:01:44;98844.59;;;7.08;97.96
23996;BME280;12207;50.076;8.848;2023-12-22T10:04:14;98856.34;;;7.00;98.98
23996;BME280;12207;50.076;8.848;2023-12-22T10:06:41;98842.59;;;7.03;99.35
23996;BME280;12207;50.076;8.848;2023-12-22T10:09:10;98832.97;;;7.02;99.25
23996;BME280;12207;50.076;8.848;2023-12-22T10:11:38;98829.06;;;7.05;100.00
23996;BME280;12207;50.076;8.848;2023-12-22T10:14:05;98823.03;;;7.09;100.00
23996;BME280;12207;50.076;8.848;2023-12-22T10:16:32;98822.38;;;7.14;100.00
23996;BME280;12207;50.076;8.848;2023-12-22T10:18:59;98830.47;;;7.26;100.00
23996;BME280;12207;50.076;8.848;2023-12-22T10:21:26;98827.13;;;7.30;100.00
23996;BME280;12207;50.076;8.848;2023-12-22T10:23:52;98822.63;;;7.31;100.00
23996;BME280;12207;50.076;8.848;2023-12-22T10:26:18;98819.75;;;7.44;100.00
23996;BME280;12207;50.076;8.848;2023-12-22T10:28:47;98811.47;;;7.52;100.00
23996;BME280;12207;50.076;8.848;2023-12-22T10:31:14;98797.22;;;7.58;100.00
23996;BME280;12207;50.076;8.848;2023-12-22T10:33:42;98807.88;;;7.58;100.00
23996;BME280;12207;50.076;8.848;2023-12-22T10:36:09;98785.50;;;7.59;100.00
23996;BME280;12207;50.076;8.848;2023-12-22T10:38:36;98778.09;;;7.61;100.00
23996;BME280;12207;50.076;8.848;2023-12-22T10:41:06;98779.03;;;7.55;100.00
23996;BME280;12207;50.076;8.848;2023-12-22T10:43:39;98770.78;;;7.57;100.00
23996;BME280;12207;50.076;8.848;2023-12-22T10:46:05;98769.66;;;7.64;100.00
23996;BME280;12207;50.076;8.848;2023-12-22T10:48:33;98769.88;;;7.63;100.00
23996;BME280;12207;50.076;8.848;2023-12-22T10:51:00;98760.19;;;7.68;100.00
23996;BME280;12207;50.076;8.848;2023-12-22T10:53:26;98764.59;;;7.74;100.00
23996;BME280;12207;50.076;8.848;2023-12-22T10:55:52;98750.00;;;7.77;100.00
23996;BME280;12207;50.076;8.848;2023-12-22T10:58:19;98759.16;;;7.81;100.00
23996;BME280;12207;50.076;8.848;2023-12-22T11:00:48;98754.88;;;7.92;100.00
23996;BME280;12207;50.076;8.848;2023-12-22T11:03:18;98742.94;;;7.94;100.00
23996;BME280;12207;50.076;8.848;2023-12-22T11:05:48;98744.94;;;7.99;99.05
23996;BME280;12207;50.076;8.848;2023-12-22T11:08:17;98741.09;;;8.06;99.10
23996;BME280;12207;50.076;8.848;2023-12-22T11:10:45;98733.56;;;8.15;97.70
23996;BME280;12207;50.076;8.848;2023-12-22T11:13:16;98732.06;;;8.19;97.83
23996;BME280;12207;50.076;8.848;2023-12-22T11:15:44;98733.00;;;8.25;96.89
23996;BME280;12207;50.076;8.848;2023-12-22T11:18:10;98732.28;;;8.29;97.67
23996;BME280;12207;50.076;8.848;2023-12-22T11:20:37;98717.00;;;8.36;96.39
23996;BME280;12207;50.076;8.848;2023-12-22T11:23:04;98715.38;;;8.35;96.12
23996;BME280;12207;50.076;8.848;2023-12-22T11:25:32;98711.66;;;8.36;96.31
23996;BME280;12207;50.076;8.848;2023-12-22T11:27:59;98697.28;;;8.37;97.48
23996;BME280;12207;50.076;8.848;2023-12-22T11:30:27;98683.47;;;8.40;96.11
23996;BME280;12207;50.076;8.848;2023-12-22T11:32:55;98689.28;;;8.49;96.41
23996;BME280;12207;50.076;8.848;2023-12-22T11:35:25;98695.06;;;8.46;96.69
23996;BME280;12207;50.076;8.848;2023-12-22T11:37:53;98681.22;;;8.61;95.37
23996;BME280;12207;50.076;8.848;2023-12-22T11:40:19;98675.41;;;8.64;95.99
23996;BME280;12207;50.076;8.848;2023-12-22T11:42:49;98670.06;;;8.64;96.72
23996;BME280;12207;50.076;8.848;2023-12-22T11:45:18;98673.78;;;8.63;97.10
23996;BME280;12207;50.076;8.848;2023-12-22T11:47:45;98669.97;;;8.59;97.28
23996;BME280;12207;50.076;8.848;2023-12-22T11:50:13;98665.56;;;8.52;97.14
23996;BME280;12207;50.076;8.848;2023-12-22T11:52:53;98659.91;;;8.49;96.93
23996;BME280;12207;50.076;8.848;2023-12-22T11:58:35;98663.81;;;8.58;96.99
23996;BME280;12207;50.076;8.848;2023-12-22T12:01:02;98648.38;;;8.60;97.01
23996;BME280;12207;50.076;8.848;2023-12-22T12:03:56;98641.06;;;8.55;97.90
23996;BME280;12207;50.076;8.848;2023-12-22T12:08:56;98624.41;;;8.48;99.60
23996;BME280;12207;50.076;8.848;2023-12-22T12:11:23;98625.00;;;8.39;100.00
23996;BME280;12207;50.076;8.848;2023-12-22T12:13:53;98613.16;;;8.35;100.00
23996;BME280;12207;50.076;8.848;2023-12-22T12:16:20;98605.50;;;8.27;100.00
23996;BME280;12207;50.076;8.848;2023-12-22T12:18:47;98610.03;;;8.26;100.00
23996;BME280;12207;50.076;8.848;2023-12-22T12:21:14;98618.59;;;8.28;100.00
23996;BME280;12207;50.076;8.848;2023-12-22T12:23:41;98614.78;;;8.24;100.00
23996;BME280;12207;50.076;8.848;2023-12-22T12:26:08;98613.75;;;8.25;100.00
23996;BME280;12207;50.076;8.848;2023-12-22T12:28:36;98612.81;;;8.19;100.00
23996;BME280;12207;50.076;8.848;2023-12-22T12:31:06;98619.78;;;8.09;100.00
23996;BME280;12207;50.076;8.848;2023-12-22T12:33:35;98617.59;;;8.06;100.00
23996;BME280;12207;50.076;8.848;2023-12-22T12:36:02;98614.34;;;8.04;100.00
23996;BME280;12207;50.076;8.848;2023-12-22T12:38:53;98611.56;;;8.10;100.00
23996;BME280;12207;50.076;8.848;2023-12-22T12:41:30;98615.25;;;8.09;100.00
23996;BME280;12207;50.076;8.848;2023-12-22T12:43:58;98615.16;;;8.16;100.00
23996;BME280;12207;50.076;8.848;2023-12-22T12:46:38;98611.88;;;8.26;100.00
23996;BME280;12207;50.076;8.848;2023-12-22T12:49:10;98620.22;;;8.29;100.00
23996;BME280;12207;50.076;8.848;2023-12-22T12:51:47;98624.41;;;8.25;100.00
23996;BME280;12207;50.076;8.848;2023-12-22T12:54:14;98620.00;;;8.19;100.00
23996;BME280;12207;50.076;8.848;2023-12-22T12:56:47;98632.31;;;8.20;100.00
23996;BME280;12207;50.076;8.848;2023-12-22T12:59:17;98629.06;;;8.18;100.00
23996;BME280;12207;50.076;8.848;2023-12-22T13:01:47;98624.53;;;8.18;100.00
23996;BME280;12207;50.076;8.848;2023-12-22T13:04:15;98631.72;;;8.18;100.00
23996;BME280;12207;50.076;8.848;2023-12-22T13:06:48;98619.09;;;8.25;100.00
23996;BME280;12207;50.076;8.848;2023-12-22T13:09:15;98624.50;;;8.30;100.00
23996;BME280;12207;50.076;8.848;2023-12-22T13:11:42;98626.59;;;8.28;100.00
23996;BME280;12207;50.076;8.848;2023-12-22T13:14:09;98621.59;;;8.32;100.00
23996;BME280;12207;50.076;8.848;2023-12-22T13:16:39;98627.44;;;8.40;100.00
23996;BME280;12207;50.076;8.848;2023-12-22T13:19:05;98624.66;;;8.35;100.00